Thunder radar more information blitzortung!


Radar de pluja more information rain snow radar


Visita la nostra xarxa de llocs de meteo:

Template documentation
and downloads

And another site



No particular awareness of the weather is required.    There are no Weather-warnings

Pagina Historial Weather Underground text

Diari Resum May 21, 2016 Unitats:  Mètric    Imperial   Tant
« Previous Dia
SegĂźent Dia »
Diari Setmana Mensual Anual Personalitzada
  Maxima: Minima: Media:
Temperatura: 25.1 °C 12.8 °C 20.1 °C
Punt de rosada: 13.2 °C 9.3 °C 11.1 °C
Humitat: 82 % 42 % 58 %
Wind Speed: 22.2 km/h 0.0 km/h 8.7 km/h
RĂ fegues de vent: 22.2 km/h - -
Vent:- - SW
Pression baro: 1021.9 hPa 1015.8 hPa -
Precipitacions: 0.0 mm    
Historical Graphs
 
 
Dades de taula per May 21, 2016
Temps Temperatura Punt de rosada Pression baro Vent Wind Speed RĂ fegues de vent Humitat Rainfall Rate (Hourly)
00:00 15.9 °C 10.7 °C 1020.9 hPa WSW 2.6 km/h 3.2 km/h 71 % 0.0 mm
00:10 15.7 °C 10.7 °C 1021.9 hPa SW 3.9 km/h 3.9 km/h 72 % 0.0 mm
00:20 12.8 °C 9.8 °C 1019.9 hPa WSW 1.6 km/h 3.2 km/h 82 % 0.0 mm
00:30 12.9 °C 9.7 °C 1020.9 hPa WSW 1.6 km/h 3.2 km/h 81 % 0.0 mm
00:40 13.0 °C 9.8 °C 1019.9 hPa WSW 3.2 km/h 3.2 km/h 81 % 0.0 mm
00:50 13.1 °C 9.9 °C 1019.9 hPa West 3.2 km/h 4.8 km/h 81 % 0.0 mm
01:00 13.1 °C 9.9 °C 1019.9 hPa West 1.6 km/h 4.8 km/h 81 % 0.0 mm
01:10 13.0 °C 9.6 °C 1019.9 hPa WSW 1.6 km/h 4.8 km/h 80 % 0.0 mm
01:20 13.0 °C 9.6 °C 1019.9 hPa West 3.2 km/h 4.8 km/h 80 % 0.0 mm
01:30 12.9 °C 9.3 °C 1019.9 hPa West 1.6 km/h 6.4 km/h 79 % 0.0 mm
01:40 13.0 °C 9.4 °C 1019.9 hPa West 3.2 km/h 6.4 km/h 79 % 0.0 mm
01:50 13.4 °C 9.8 °C 1019.9 hPa West 1.6 km/h 3.2 km/h 79 % 0.0 mm
02:10 13.3 °C 9.6 °C 1019.9 hPa SW 1.6 km/h 3.2 km/h 78 % 0.0 mm
02:20 13.3 °C 9.6 °C 1019.9 hPa South 1.6 km/h 3.2 km/h 78 % 0.0 mm
02:30 13.5 °C 9.7 °C 1019.9 hPa SE 1.6 km/h 3.2 km/h 78 % 0.0 mm
02:40 13.6 °C 9.8 °C 1019.9 hPa SSE 1.6 km/h 3.2 km/h 78 % 0.0 mm
03:00 14.6 °C 10.6 °C 1018.8 hPa ENE 1.6 km/h 3.2 km/h 77 % 0.0 mm
03:10 15.2 °C 11.0 °C 1019.9 hPa ENE 1.6 km/h 4.8 km/h 76 % 0.0 mm
03:20 15.6 °C 11.2 °C 1019.9 hPa Calm   3.2 km/h 75 % 0.0 mm
03:30 15.9 °C 11.4 °C 1019.9 hPa ESE 1.6 km/h 1.6 km/h 75 % 0.0 mm
03:40 16.5 °C 11.8 °C 1019.9 hPa SSE 1.6 km/h 3.2 km/h 74 % 0.0 mm
03:50 17.1 °C 12.0 °C 1019.9 hPa SE 1.6 km/h 4.8 km/h 72 % 0.0 mm
04:00 17.2 °C 11.9 °C 1019.9 hPa ESE 3.2 km/h 4.8 km/h 71 % 0.0 mm
04:10 17.7 °C 12.2 °C 1019.9 hPa South 3.2 km/h 4.8 km/h 70 % 0.0 mm
04:20 17.6 °C 11.8 °C 1019.9 hPa SW 1.6 km/h 4.8 km/h 69 % 0.0 mm
04:30 18.3 °C 12.7 °C 1019.9 hPa WSW 3.2 km/h 4.8 km/h 70 % 0.0 mm
04:40 18.5 °C 12.9 °C 1019.9 hPa SW 4.8 km/h 8.0 km/h 70 % 0.0 mm
04:50 18.7 °C 12.7 °C 1019.9 hPa SW 4.8 km/h 8.0 km/h 68 % 0.0 mm
05:00 19.4 °C 12.7 °C 1019.9 hPa SW 8.0 km/h 12.9 km/h 65 % 0.0 mm
05:10 19.7 °C 12.9 °C 1019.9 hPa SW 4.8 km/h 9.7 km/h 65 % 0.0 mm
05:20 20.5 °C 13.2 °C 1019.9 hPa SW 4.8 km/h 9.7 km/h 63 % 0.0 mm
05:30 20.9 °C 12.8 °C 1019.9 hPa SW 4.8 km/h 9.7 km/h 60 % 0.0 mm
05:40 21.0 °C 12.4 °C 1019.9 hPa SW 4.8 km/h 9.7 km/h 58 % 0.0 mm
05:50 21.7 °C 12.3 °C 1019.9 hPa SW 3.2 km/h 9.7 km/h 55 % 0.0 mm
06:00 21.6 °C 11.3 °C 1019.9 hPa SW 12.9 km/h 16.1 km/h 52 % 0.0 mm
06:10 21.9 °C 11.6 °C 1019.9 hPa SW 9.7 km/h 16.1 km/h 52 % 0.0 mm
06:20 22.2 °C 11.9 °C 1019.9 hPa SW 9.7 km/h 16.1 km/h 52 % 0.0 mm
11:23 22.2 °C 11.9 °C 1019.9 hPa SW 20.9 km/h 20.9 km/h 52 % 0.0 mm
11:28 22.3 °C 11.4 °C 1019.9 hPa SW 9.3 km/h 9.3 km/h 50 % 0.0 mm
11:33 22.4 °C 10.8 °C 1019.9 hPa SSW 16.7 km/h 16.7 km/h 48 % 0.0 mm
11:38 22.5 °C 11.2 °C 1019.9 hPa South 18.5 km/h 18.5 km/h 49 % 0.0 mm
11:43 22.9 °C 11.9 °C 1019.9 hPa South 9.3 km/h 9.3 km/h 50 % 0.0 mm
11:48 22.8 °C 11.5 °C 1019.9 hPa SW 11.1 km/h 11.1 km/h 49 % 0.0 mm
11:53 23.0 °C 11.7 °C 1019.9 hPa SSW 20.9 km/h 20.9 km/h 49 % 0.0 mm
11:58 23.0 °C 11.4 °C 1019.9 hPa SSW 20.4 km/h 20.4 km/h 48 % 0.0 mm
12:03 23.0 °C 11.4 °C 1019.9 hPa SW 22.2 km/h 22.2 km/h 48 % 0.0 mm
12:08 23.3 °C 11.7 °C 1019.9 hPa WSW 13.0 km/h 13.0 km/h 48 % 0.0 mm
12:13 23.5 °C 11.8 °C 1019.9 hPa SSW 16.7 km/h 16.7 km/h 48 % 0.0 mm
12:18 23.5 °C 11.6 °C 1019.9 hPa SE 13.0 km/h 13.0 km/h 47 % 0.0 mm
12:23 23.3 °C 11.3 °C 1018.8 hPa SW 16.7 km/h 16.7 km/h 47 % 0.0 mm
12:28 23.5 °C 11.8 °C 1018.8 hPa WSW 11.9 km/h 11.9 km/h 48 % 0.0 mm
12:33 23.8 °C 11.8 °C 1018.8 hPa WSW 18.5 km/h 18.5 km/h 47 % 0.0 mm
12:38 23.8 °C 11.8 °C 1018.8 hPa WSW 16.4 km/h 16.4 km/h 47 % 0.0 mm
12:43 23.5 °C 11.2 °C 1018.8 hPa West 16.7 km/h 16.7 km/h 46 % 0.0 mm
12:48 23.6 °C 11.3 °C 1018.8 hPa WSW 20.4 km/h 20.4 km/h 46 % 0.0 mm
12:53 23.6 °C 11.3 °C 1018.8 hPa WSW 16.7 km/h 16.7 km/h 46 % 0.0 mm
12:58 23.9 °C 11.6 °C 1018.8 hPa South 9.3 km/h 9.7 km/h 46 % 0.0 mm
13:03 24.3 °C 11.6 °C 1018.8 hPa SSW 13.7 km/h 13.7 km/h 45 % 0.0 mm
13:08 24.2 °C 11.5 °C 1018.8 hPa South 13.0 km/h 13.0 km/h 45 % 0.0 mm
13:13 24.5 °C 11.8 °C 1018.8 hPa WNW 13.0 km/h 13.0 km/h 45 % 0.0 mm
13:18 24.3 °C 11.3 °C 1018.8 hPa SSW 20.4 km/h 20.4 km/h 44 % 0.0 mm
13:28 24.4 °C 11.3 °C 1018.8 hPa SW 9.3 km/h 9.5 km/h 44 % 0.0 mm
13:33 24.2 °C 10.8 °C 1018.8 hPa West 22.2 km/h 22.2 km/h 43 % 0.0 mm
13:38 24.0 °C 10.7 °C 1018.8 hPa WSW 20.4 km/h 20.4 km/h 43 % 0.0 mm
13:43 24.2 °C 10.8 °C 1018.8 hPa WSW 16.7 km/h 16.7 km/h 43 % 0.0 mm
13:53 24.2 °C 11.2 °C 1019.9 hPa WSW 14.8 km/h 14.8 km/h 44 % 0.0 mm
13:58 24.5 °C 11.4 °C 1019.9 hPa WSW 16.7 km/h 16.7 km/h 44 % 0.0 mm
14:03 24.3 °C 10.9 °C 1019.9 hPa West 18.5 km/h 18.5 km/h 43 % 0.0 mm
14:08 24.3 °C 11.3 °C 1019.9 hPa SW 14.8 km/h 14.8 km/h 44 % 0.0 mm
14:13 24.7 °C 11.6 °C 1019.9 hPa SW 14.8 km/h 14.8 km/h 44 % 0.0 mm
14:18 24.6 °C 11.6 °C 1019.9 hPa SW 14.8 km/h 14.8 km/h 44 % 0.0 mm
14:23 24.5 °C 11.4 °C 1018.8 hPa SW 16.7 km/h 16.7 km/h 44 % 0.0 mm
14:28 24.4 °C 11.0 °C 1018.8 hPa SW 22.2 km/h 22.2 km/h 43 % 0.0 mm
14:33 24.3 °C 11.3 °C 1018.8 hPa NW 14.8 km/h 14.8 km/h 44 % 0.0 mm
14:38 24.8 °C 11.7 °C 1018.8 hPa WSW 13.0 km/h 13.0 km/h 44 % 0.0 mm
14:43 24.7 °C 10.9 °C 1018.8 hPa WSW 14.0 km/h 14.0 km/h 42 % 0.0 mm
14:48 24.5 °C 11.1 °C 1018.8 hPa SSW 13.0 km/h 13.7 km/h 43 % 0.0 mm
14:53 24.7 °C 11.6 °C 1018.8 hPa SW 15.1 km/h 15.1 km/h 44 % 0.0 mm
14:58 24.6 °C 11.9 °C 1018.8 hPa South 14.8 km/h 14.8 km/h 45 % 0.0 mm
15:03 25.1 °C 12.0 °C 1018.8 hPa SSW 9.3 km/h 9.3 km/h 44 % 0.0 mm
15:08 24.6 °C 11.9 °C 1018.8 hPa SSW 18.5 km/h 18.5 km/h 45 % 0.0 mm
15:13 24.6 °C 12.2 °C 1018.8 hPa South 14.8 km/h 14.8 km/h 46 % 0.0 mm
15:18 25.1 °C 12.3 °C 1018.8 hPa SSW 7.4 km/h 7.4 km/h 45 % 0.0 mm
15:23 24.5 °C 12.1 °C 1018.8 hPa South 20.4 km/h 20.4 km/h 46 % 0.0 mm
15:28 25.0 °C 12.6 °C 1018.8 hPa SSW 11.1 km/h 11.1 km/h 46 % 0.0 mm
15:33 25.1 °C 12.3 °C 1018.8 hPa WSW 11.1 km/h 11.1 km/h 45 % 0.0 mm
15:38 24.6 °C 12.2 °C 1018.8 hPa WSW 14.8 km/h 14.8 km/h 46 % 0.0 mm
15:43 24.5 °C 12.1 °C 1018.8 hPa West 13.0 km/h 13.0 km/h 46 % 0.0 mm
15:48 24.2 °C 11.8 °C 1018.8 hPa WSW 14.8 km/h 14.8 km/h 46 % 0.0 mm
15:58 24.5 °C 11.8 °C 1018.8 hPa WSW 16.7 km/h 16.7 km/h 45 % 0.0 mm
16:03 24.6 °C 11.9 °C 1018.8 hPa SSW 19.0 km/h 19.0 km/h 45 % 0.0 mm
16:08 24.6 °C 11.9 °C 1017.8 hPa South 11.1 km/h 11.1 km/h 45 % 0.0 mm
16:13 24.7 °C 11.9 °C 1017.8 hPa SW 18.5 km/h 18.5 km/h 45 % 0.0 mm
16:18 24.5 °C 11.4 °C 1017.8 hPa SW 18.5 km/h 18.5 km/h 44 % 0.0 mm
16:23 24.1 °C 11.1 °C 1017.8 hPa WSW 16.9 km/h 16.9 km/h 44 % 0.0 mm
16:28 23.5 °C 10.6 °C 1017.8 hPa SSW 16.7 km/h 16.7 km/h 44 % 0.0 mm
16:43 24.0 °C 11.0 °C 1017.8 hPa SW 16.7 km/h 16.7 km/h 44 % 0.0 mm
16:53 24.3 °C 11.3 °C 1017.8 hPa SSW 13.0 km/h 13.0 km/h 44 % 0.0 mm
16:59 24.5 °C 11.4 °C 1017.8 hPa ESE 14.8 km/h 14.8 km/h 44 % 0.0 mm
17:04 24.9 °C 11.8 °C 1017.8 hPa SW 14.8 km/h 14.8 km/h 44 % 0.0 mm
17:09 24.4 °C 11.0 °C 1017.8 hPa SW 13.0 km/h 13.0 km/h 43 % 0.0 mm
17:14 23.8 °C 10.8 °C 1017.8 hPa SW 14.8 km/h 14.8 km/h 44 % 0.0 mm
17:19 23.8 °C 10.8 °C 1017.8 hPa SW 18.0 km/h 18.0 km/h 44 % 0.0 mm
17:24 24.1 °C 11.1 °C 1016.8 hPa SSW 9.3 km/h 9.3 km/h 44 % 0.0 mm
17:29 24.2 °C 11.2 °C 1016.8 hPa SSW 7.4 km/h 7.4 km/h 44 % 0.0 mm
17:34 24.5 °C 11.4 °C 1016.8 hPa SSW 10.0 km/h 10.0 km/h 44 % 0.0 mm
17:39 24.0 °C 11.0 °C 1017.8 hPa SSE 13.0 km/h 13.0 km/h 44 % 0.0 mm
17:44 23.7 °C 10.7 °C 1017.8 hPa WSW 19.5 km/h 19.5 km/h 44 % 0.0 mm
17:49 23.9 °C 10.9 °C 1017.8 hPa SW 5.6 km/h 7.6 km/h 44 % 0.0 mm
17:54 24.1 °C 11.1 °C 1017.8 hPa WSW 13.0 km/h 13.0 km/h 44 % 0.0 mm
17:59 23.5 °C 10.6 °C 1017.8 hPa WSW 16.7 km/h 16.7 km/h 44 % 0.0 mm
18:04 23.5 °C 10.6 °C 1017.8 hPa SW 16.7 km/h 16.7 km/h 44 % 0.0 mm
18:09 23.6 °C 10.6 °C 1017.8 hPa South 9.5 km/h 9.5 km/h 44 % 0.0 mm
18:19 23.2 °C 10.3 °C 1017.8 hPa SSW 7.4 km/h 7.4 km/h 44 % 0.0 mm
18:29 22.8 °C 10.2 °C 1017.8 hPa WSW 13.0 km/h 13.0 km/h 45 % 0.0 mm
18:34 22.8 °C 10.6 °C 1017.8 hPa SSW 9.3 km/h 9.3 km/h 46 % 0.0 mm
18:39 22.8 °C 10.6 °C 1017.8 hPa SSE 9.3 km/h 9.3 km/h 46 % 0.0 mm
18:49 22.6 °C 10.7 °C 1017.8 hPa WSW 15.1 km/h 15.1 km/h 47 % 0.0 mm
18:59 22.0 °C 10.5 °C 1017.8 hPa SW 9.3 km/h 9.3 km/h 48 % 0.0 mm
19:04 21.9 °C 10.4 °C 1017.8 hPa West 7.4 km/h 7.4 km/h 48 % 0.0 mm
19:09 21.6 °C 10.4 °C 1017.8 hPa WSW 7.4 km/h 7.4 km/h 49 % 0.0 mm
19:10 15.3 °C 11.1 °C 1017.8 hPa Calm   11.3 km/h 76 % 0.0 mm
19:14 21.2 °C 10.1 °C 1017.8 hPa WSW 3.7 km/h 5.3 km/h 49 % 0.0 mm
19:19 21.2 °C 10.1 °C 1017.8 hPa SW 11.1 km/h 11.1 km/h 49 % 0.0 mm
19:20 15.2 °C 11.0 °C 1017.8 hPa Calm   1.6 km/h 76 % 0.0 mm
19:30 15.2 °C 11.2 °C 1017.8 hPa Calm     77 % 0.0 mm
19:34 20.8 °C 10.6 °C 1017.8 hPa WSW 11.1 km/h 11.1 km/h 52 % 0.0 mm
19:39 20.4 °C 10.5 °C 1017.8 hPa SW 7.4 km/h 9.0 km/h 53 % 0.0 mm
19:40 15.3 °C 11.1 °C 1017.8 hPa WSW 1.6 km/h 3.2 km/h 76 % 0.0 mm
19:44 20.2 °C 10.6 °C 1017.8 hPa WSW 11.1 km/h 11.1 km/h 54 % 0.0 mm
19:49 20.0 °C 10.4 °C 1017.8 hPa WSW 9.3 km/h 9.3 km/h 54 % 0.0 mm
19:50 15.2 °C 11.4 °C 1017.8 hPa Calm   1.6 km/h 78 % 0.0 mm
19:54 19.8 °C 10.5 °C 1017.8 hPa SW 13.0 km/h 13.0 km/h 55 % 0.0 mm
19:59 19.7 °C 10.4 °C 1017.8 hPa SSW 5.8 km/h 5.8 km/h 55 % 0.0 mm
20:00 15.2 °C 11.4 °C 1017.8 hPa Calm     78 % 0.0 mm
20:04 19.7 °C 10.7 °C 1017.8 hPa SW 9.3 km/h 9.3 km/h 56 % 0.0 mm
20:10 15.2 °C 11.2 °C 1017.8 hPa SW 1.6 km/h 3.2 km/h 77 % 0.0 mm
20:14 19.3 °C 10.6 °C 1017.8 hPa SW 4.7 km/h 7.2 km/h 57 % 0.0 mm
20:20 19.1 °C 10.7 °C 1017.8 hPa SW 4.7 km/h 7.2 km/h 58 % 0.0 mm
20:25 19.0 °C 10.8 °C 1017.8 hPa SW 4.7 km/h 7.2 km/h 59 % 0.0 mm
20:30 18.9 °C 10.9 °C 1017.8 hPa SSW 9.3 km/h 9.3 km/h 60 % 0.0 mm
20:35 18.7 °C 10.8 °C 1016.8 hPa SW 7.4 km/h 7.4 km/h 60 % 0.0 mm
20:40 18.6 °C 10.7 °C 1016.8 hPa SW 7.4 km/h 7.4 km/h 60 % 0.0 mm
20:45 18.5 °C 10.6 °C 1016.8 hPa SSW 7.4 km/h 7.4 km/h 60 % 0.0 mm
20:50 18.5 °C 10.6 °C 1018.8 hPa SSW 5.6 km/h 5.6 km/h 60 % 0.0 mm
20:55 18.4 °C 10.7 °C 1018.8 hPa SSW 3.7 km/h 3.7 km/h 61 % 0.0 mm
21:00 18.2 °C 10.6 °C 1018.8 hPa WSW 3.7 km/h 4.7 km/h 61 % 0.0 mm
21:05 18.1 °C 10.4 °C 1017.8 hPa SW 7.4 km/h 7.4 km/h 61 % 0.0 mm
21:10 18.0 °C 10.6 °C 1017.8 hPa SW 5.6 km/h 5.6 km/h 62 % 0.0 mm
21:15 17.8 °C 10.4 °C 1017.8 hPa SW 5.6 km/h 5.6 km/h 62 % 0.0 mm
21:20 17.8 °C 10.4 °C 1017.8 hPa SW 5.6 km/h 5.6 km/h 62 % 0.0 mm
21:25 17.6 °C 10.2 °C 1017.8 hPa SW 3.7 km/h 3.7 km/h 62 % 0.0 mm
21:30 17.5 °C 10.4 °C 1017.8 hPa SW 1.6 km/h 4.8 km/h 63 % 0.0 mm
21:35 17.3 °C 10.2 °C 1017.8 hPa SW 5.6 km/h 5.6 km/h 63 % 0.0 mm
21:40 17.2 °C 10.3 °C 1017.8 hPa SW 3.2 km/h 8.0 km/h 64 % 0.0 mm
21:45 17.1 °C 10.4 °C 1017.8 hPa SW 4.8 km/h 6.4 km/h 65 % 0.0 mm
21:50 17.0 °C 10.8 °C 1017.8 hPa SW 9.5 km/h 9.5 km/h 67 % 0.0 mm
21:55 16.9 °C 10.9 °C 1017.8 hPa SW 9.5 km/h 9.5 km/h 68 % 0.0 mm
22:00 14.3 °C 10.9 °C 1015.8 hPa ENE 3.2 km/h 3.2 km/h 80 % 0.0 mm
22:05 16.7 °C 11.0 °C 1017.8 hPa SW 3.2 km/h 9.7 km/h 69 % 0.0 mm
22:10 16.7 °C 11.0 °C 1017.8 hPa West 6.1 km/h 6.1 km/h 69 % 0.0 mm
22:15 16.5 °C 11.2 °C 1017.8 hPa SW 5.6 km/h 5.6 km/h 71 % 0.0 mm
22:20 16.5 °C 11.0 °C 1016.8 hPa SW 2.6 km/h 3.2 km/h 70 % 0.0 mm
22:25 16.4 °C 11.3 °C 1016.8 hPa SW 2.6 km/h 3.2 km/h 72 % 0.0 mm
22:30 16.4 °C 11.3 °C 1016.8 hPa SW 2.6 km/h 3.2 km/h 72 % 0.0 mm
22:35 16.4 °C 11.3 °C 1017.2 hPa SW 3.2 km/h 3.2 km/h 72 % 0.0 mm
22:40 16.3 °C 11.4 °C 1017.8 hPa Calm   3.2 km/h 73 % 0.0 mm
22:45 16.2 °C 11.2 °C 1017.8 hPa Calm     72 % 0.0 mm
22:50 16.2 °C 11.3 °C 1017.8 hPa Calm     73 % 0.0 mm
22:55 16.1 °C 11.3 °C 1017.8 hPa Calm     73 % 0.0 mm
23:00 13.6 °C 10.4 °C 1015.8 hPa Calm     81 % 0.0 mm
23:05 16.0 °C 11.4 °C 1017.8 hPa Calm   1.6 km/h 74 % 0.0 mm
23:10 16.0 °C 11.4 °C 1017.8 hPa Calm     74 % 0.0 mm
23:15 16.0 °C 11.2 °C 1017.8 hPa West 1.6 km/h 1.6 km/h 73 % 0.0 mm
23:20 15.9 °C 11.4 °C 1017.8 hPa Calm   1.6 km/h 75 % 0.0 mm
23:25 15.9 °C 11.4 °C 1017.8 hPa Calm     75 % 0.0 mm
23:30 15.8 °C 11.4 °C 1017.8 hPa Calm     75 % 0.0 mm
23:35 15.7 °C 11.3 °C 1017.8 hPa NNE 1.9 km/h   75 % 0.0 mm
23:40 15.7 °C 11.3 °C 1017.8 hPa NNE 1.9 km/h   75 % 0.0 mm
23:45 15.7 °C 11.5 °C 1017.8 hPa Calm   1.6 km/h 76 % 0.0 mm
23:50 15.7 °C 11.3 °C 1016.8 hPa Calm     75 % 0.0 mm
23:55 15.7 °C 11.3 °C 1016.8 hPa Calm     75 % 0.0 mm
Meteo Sesrovires
Elogis d' Weather Underground - 3.5 mb

Guio original per  Jim McMurry - jmcmurry@mwt.net Adaptat per a la plantilla per  Wim van der Kuil - Leuven-Template.eu

Trobareu la nostra informacio del temps tambe a:

Weather Underground

AWEKAS